sensor_id;sensor_type;location;lat;lon;timestamp;P1;durP1;ratioP1;P2;durP2;ratioP2
71042;SDS011;58696;52.134;5.500;2023-04-15T00:02:25;5.63;;;3.70;;
71042;SDS011;58696;52.134;5.500;2023-04-15T00:04:55;7.43;;;3.80;;
71042;SDS011;58696;52.134;5.500;2023-04-15T00:07:21;6.95;;;3.88;;
71042;SDS011;58696;52.134;5.500;2023-04-15T00:09:48;7.25;;;3.50;;
71042;SDS011;58696;52.134;5.500;2023-04-15T00:12:14;9.65;;;3.72;;
71042;SDS011;58696;52.134;5.500;2023-04-15T00:14:43;7.75;;;4.10;;
71042;SDS011;58696;52.134;5.500;2023-04-15T00:17:10;7.72;;;4.00;;
71042;SDS011;58696;52.134;5.500;2023-04-15T00:19:39;4.35;;;3.40;;
71042;SDS011;58696;52.134;5.500;2023-04-15T00:22:06;7.07;;;3.90;;
71042;SDS011;58696;52.134;5.500;2023-04-15T00:24:33;5.00;;;3.60;;
71042;SDS011;58696;52.134;5.500;2023-04-15T00:26:59;5.22;;;3.58;;
71042;SDS011;58696;52.134;5.500;2023-04-15T00:29:26;6.32;;;3.60;;
71042;SDS011;58696;52.134;5.500;2023-04-15T00:31:52;5.32;;;3.58;;
71042;SDS011;58696;52.134;5.500;2023-04-15T00:34:19;5.50;;;3.67;;
71042;SDS011;58696;52.134;5.500;2023-04-15T00:36:46;5.00;;;3.38;;
71042;SDS011;58696;52.134;5.500;2023-04-15T00:39:15;6.50;;;4.13;;
71042;SDS011;58696;52.134;5.500;2023-04-15T00:41:42;6.10;;;3.40;;
71042;SDS011;58696;52.134;5.500;2023-04-15T00:44:13;4.25;;;3.28;;
71042;SDS011;58696;52.134;5.500;2023-04-15T00:46:43;5.00;;;3.25;;
71042;SDS011;58696;52.134;5.500;2023-04-15T00:49:10;6.32;;;3.88;;
71042;SDS011;58696;52.134;5.500;2023-04-15T00:51:42;7.60;;;3.55;;
71042;SDS011;58696;52.134;5.500;2023-04-15T00:54:12;9.13;;;3.72;;
71042;SDS011;58696;52.134;5.500;2023-04-15T00:56:39;6.68;;;3.50;;
71042;SDS011;58696;52.134;5.500;2023-04-15T00:59:08;10.02;;;3.63;;
71042;SDS011;58696;52.134;5.500;2023-04-15T01:01:35;8.48;;;3.90;;
71042;SDS011;58696;52.134;5.500;2023-04-15T01:04:02;5.80;;;3.85;;
71042;SDS011;58696;52.134;5.500;2023-04-15T01:06:30;6.80;;;3.67;;
71042;SDS011;58696;52.134;5.500;2023-04-15T01:08:58;5.47;;;3.50;;
71042;SDS011;58696;52.134;5.500;2023-04-15T01:11:27;7.63;;;3.60;;
71042;SDS011;58696;52.134;5.500;2023-04-15T01:13:55;5.80;;;3.35;;
71042;SDS011;58696;52.134;5.500;2023-04-15T01:16:23;7.32;;;3.95;;
71042;SDS011;58696;52.134;5.500;2023-04-15T01:18:53;6.75;;;3.72;;
71042;SDS011;58696;52.134;5.500;2023-04-15T01:21:23;8.70;;;4.20;;
71042;SDS011;58696;52.134;5.500;2023-04-15T01:23:50;7.50;;;3.35;;
71042;SDS011;58696;52.134;5.500;2023-04-15T01:26:20;6.50;;;3.97;;
71042;SDS011;58696;52.134;5.500;2023-04-15T01:28:48;7.25;;;3.40;;
71042;SDS011;58696;52.134;5.500;2023-04-15T01:31:14;5.82;;;3.58;;
71042;SDS011;58696;52.134;5.500;2023-04-15T01:33:41;10.10;;;3.80;;
71042;SDS011;58696;52.134;5.500;2023-04-15T01:36:08;4.93;;;3.28;;
71042;SDS011;58696;52.134;5.500;2023-04-15T01:38:36;6.33;;;3.87;;
71042;SDS011;58696;52.134;5.500;2023-04-15T01:41:06;8.10;;;3.47;;
71042;SDS011;58696;52.134;5.500;2023-04-15T01:43:35;5.63;;;3.53;;
71042;SDS011;58696;52.134;5.500;2023-04-15T01:46:02;5.40;;;2.95;;
71042;SDS011;58696;52.134;5.500;2023-04-15T01:48:31;4.18;;;3.40;;
71042;SDS011;58696;52.134;5.500;2023-04-15T01:50:58;5.80;;;4.00;;
71042;SDS011;58696;52.134;5.500;2023-04-15T01:53:28;9.02;;;3.72;;
71042;SDS011;58696;52.134;5.500;2023-04-15T01:55:55;5.93;;;3.55;;
71042;SDS011;58696;52.134;5.500;2023-04-15T01:58:24;6.55;;;3.72;;
71042;SDS011;58696;52.134;5.500;2023-04-15T02:00:50;6.68;;;3.33;;
71042;SDS011;58696;52.134;5.500;2023-04-15T02:03:20;6.53;;;3.17;;
71042;SDS011;58696;52.134;5.500;2023-04-15T02:05:47;6.75;;;3.72;;
71042;SDS011;58696;52.134;5.500;2023-04-15T02:08:13;4.63;;;3.42;;
71042;SDS011;58696;52.134;5.500;2023-04-15T02:10:39;6.57;;;3.65;;
71042;SDS011;58696;52.134;5.500;2023-04-15T02:13:09;6.65;;;3.63;;
71042;SDS011;58696;52.134;5.500;2023-04-15T02:15:36;4.95;;;3.30;;
71042;SDS011;58696;52.134;5.500;2023-04-15T02:18:02;6.15;;;3.45;;
71042;SDS011;58696;52.134;5.500;2023-04-15T02:20:31;6.75;;;4.00;;
71042;SDS011;58696;52.134;5.500;2023-04-15T02:23:01;6.95;;;3.38;;
71042;SDS011;58696;52.134;5.500;2023-04-15T02:25:32;4.20;;;3.35;;
71042;SDS011;58696;52.134;5.500;2023-04-15T02:28:01;6.63;;;3.85;;
71042;SDS011;58696;52.134;5.500;2023-04-15T02:30:28;7.18;;;3.75;;
71042;SDS011;58696;52.134;5.500;2023-04-15T02:32:59;5.93;;;3.85;;
71042;SDS011;58696;52.134;5.500;2023-04-15T02:35:29;4.78;;;3.22;;
71042;SDS011;58696;52.134;5.500;2023-04-15T02:38:00;6.45;;;3.88;;
71042;SDS011;58696;52.134;5.500;2023-04-15T02:40:29;6.28;;;3.80;;
71042;SDS011;58696;52.134;5.500;2023-04-15T02:42:55;7.25;;;3.97;;
71042;SDS011;58696;52.134;5.500;2023-04-15T02:45:22;4.55;;;3.28;;
71042;SDS011;58696;52.134;5.500;2023-04-15T02:47:52;5.45;;;3.25;;
71042;SDS011;58696;52.134;5.500;2023-04-15T02:50:22;5.63;;;3.75;;
71042;SDS011;58696;52.134;5.500;2023-04-15T02:52:52;3.95;;;3.33;;
71042;SDS011;58696;52.134;5.500;2023-04-15T02:55:21;4.75;;;3.25;;
71042;SDS011;58696;52.134;5.500;2023-04-15T02:57:48;6.03;;;3.80;;
71042;SDS011;58696;52.134;5.500;2023-04-15T03:00:17;4.15;;;3.40;;
71042;SDS011;58696;52.134;5.500;2023-04-15T03:02:46;5.47;;;3.70;;
71042;SDS011;58696;52.134;5.500;2023-04-15T03:05:17;4.57;;;3.25;;
71042;SDS011;58696;52.134;5.500;2023-04-15T03:07:46;10.23;;;4.22;;
71042;SDS011;58696;52.134;5.500;2023-04-15T03:10:12;6.90;;;3.58;;
71042;SDS011;58696;52.134;5.500;2023-04-15T03:12:42;5.80;;;4.10;;
71042;SDS011;58696;52.134;5.500;2023-04-15T03:15:08;5.95;;;3.83;;
71042;SDS011;58696;52.134;5.500;2023-04-15T03:17:35;8.43;;;4.40;;
71042;SDS011;58696;52.134;5.500;2023-04-15T03:20:02;6.53;;;4.13;;
71042;SDS011;58696;52.134;5.500;2023-04-15T03:22:31;6.65;;;4.13;;
71042;SDS011;58696;52.134;5.500;2023-04-15T03:24:59;5.88;;;3.58;;
71042;SDS011;58696;52.134;5.500;2023-04-15T03:27:26;7.70;;;4.10;;
71042;SDS011;58696;52.134;5.500;2023-04-15T03:29:53;6.90;;;3.50;;
71042;SDS011;58696;52.134;5.500;2023-04-15T03:32:19;4.30;;;3.90;;
71042;SDS011;58696;52.134;5.500;2023-04-15T03:34:48;3.67;;;3.30;;
71042;SDS011;58696;52.134;5.500;2023-04-15T03:37:17;5.32;;;3.70;;
71042;SDS011;58696;52.134;5.500;2023-04-15T03:39:44;6.15;;;3.75;;
71042;SDS011;58696;52.134;5.500;2023-04-15T03:42:11;7.07;;;3.83;;
71042;SDS011;58696;52.134;5.500;2023-04-15T03:44:37;5.40;;;4.05;;
71042;SDS011;58696;52.134;5.500;2023-04-15T03:47:04;4.90;;;4.15;;
71042;SDS011;58696;52.134;5.500;2023-04-15T03:49:30;6.20;;;4.35;;
71042;SDS011;58696;52.134;5.500;2023-04-15T03:51:57;7.25;;;4.18;;
71042;SDS011;58696;52.134;5.500;2023-04-15T03:54:24;5.43;;;3.80;;
71042;SDS011;58696;52.134;5.500;2023-04-15T03:56:51;10.07;;;4.75;;
71042;SDS011;58696;52.134;5.500;2023-04-15T03:59:18;6.20;;;3.70;;
71042;SDS011;58696;52.134;5.500;2023-04-15T04:01:45;6.35;;;4.00;;
71042;SDS011;58696;52.134;5.500;2023-04-15T04:04:12;8.32;;;4.10;;
71042;SDS011;58696;52.134;5.500;2023-04-15T04:06:41;8.82;;;4.30;;
71042;SDS011;58696;52.134;5.500;2023-04-15T04:09:12;5.20;;;3.92;;
71042;SDS011;58696;52.134;5.500;2023-04-15T04:11:38;6.90;;;4.32;;
71042;SDS011;58696;52.134;5.500;2023-04-15T04:14:06;5.38;;;4.05;;
71042;SDS011;58696;52.134;5.500;2023-04-15T04:16:35;5.78;;;4.30;;
71042;SDS011;58696;52.134;5.500;2023-04-15T04:19:07;4.93;;;4.43;;
71042;SDS011;58696;52.134;5.500;2023-04-15T04:21:35;5.70;;;4.03;;
71042;SDS011;58696;52.134;5.500;2023-04-15T04:24:04;11.77;;;4.63;;
71042;SDS011;58696;52.134;5.500;2023-04-15T04:26:33;4.70;;;3.83;;
71042;SDS011;58696;52.134;5.500;2023-04-15T04:29:02;5.25;;;3.80;;
71042;SDS011;58696;52.134;5.500;2023-04-15T04:31:29;6.45;;;4.25;;
71042;SDS011;58696;52.134;5.500;2023-04-15T04:33:56;5.55;;;4.22;;
71042;SDS011;58696;52.134;5.500;2023-04-15T04:36:24;7.32;;;4.30;;
71042;SDS011;58696;52.134;5.500;2023-04-15T04:38:51;5.60;;;4.47;;
71042;SDS011;58696;52.134;5.500;2023-04-15T04:41:23;9.23;;;4.45;;
71042;SDS011;58696;52.134;5.500;2023-04-15T04:43:50;8.15;;;4.65;;
71042;SDS011;58696;52.134;5.500;2023-04-15T04:46:16;5.15;;;4.22;;
71042;SDS011;58696;52.134;5.500;2023-04-15T04:48:43;7.93;;;4.15;;
71042;SDS011;58696;52.134;5.500;2023-04-15T04:51:12;5.55;;;4.43;;
71042;SDS011;58696;52.134;5.500;2023-04-15T04:53:41;6.47;;;4.68;;
71042;SDS011;58696;52.134;5.500;2023-04-15T04:56:08;6.33;;;4.13;;
71042;SDS011;58696;52.134;5.500;2023-04-15T04:58:38;6.60;;;4.45;;
71042;SDS011;58696;52.134;5.500;2023-04-15T05:01:07;6.25;;;4.63;;
71042;SDS011;58696;52.134;5.500;2023-04-15T05:03:34;6.97;;;4.68;;
71042;SDS011;58696;52.134;5.500;2023-04-15T05:06:03;7.75;;;4.70;;
71042;SDS011;58696;52.134;5.500;2023-04-15T05:08:32;9.70;;;4.43;;
71042;SDS011;58696;52.134;5.500;2023-04-15T05:11:03;10.23;;;4.65;;
71042;SDS011;58696;52.134;5.500;2023-04-15T05:13:30;8.45;;;4.60;;
71042;SDS011;58696;52.134;5.500;2023-04-15T05:15:59;5.32;;;4.47;;
71042;SDS011;58696;52.134;5.500;2023-04-15T05:18:25;8.18;;;5.20;;
71042;SDS011;58696;52.134;5.500;2023-04-15T05:20:52;7.65;;;4.85;;
71042;SDS011;58696;52.134;5.500;2023-04-15T05:23:21;6.63;;;5.10;;
71042;SDS011;58696;52.134;5.500;2023-04-15T05:25:48;7.45;;;4.72;;
71042;SDS011;58696;52.134;5.500;2023-04-15T05:28:17;7.60;;;4.55;;
71042;SDS011;58696;52.134;5.500;2023-04-15T05:30:46;6.13;;;4.55;;
71042;SDS011;58696;52.134;5.500;2023-04-15T05:33:17;9.18;;;4.40;;
71042;SDS011;58696;52.134;5.500;2023-04-15T05:35:46;5.38;;;4.45;;
71042;SDS011;58696;52.134;5.500;2023-04-15T05:38:13;8.27;;;4.85;;
71042;SDS011;58696;52.134;5.500;2023-04-15T05:40:40;5.63;;;4.57;;
71042;SDS011;58696;52.134;5.500;2023-04-15T05:43:06;6.13;;;4.93;;
71042;SDS011;58696;52.134;5.500;2023-04-15T05:45:36;8.02;;;5.20;;
71042;SDS011;58696;52.134;5.500;2023-04-15T05:48:04;5.75;;;4.32;;
71042;SDS011;58696;52.134;5.500;2023-04-15T05:50:34;7.18;;;4.72;;
71042;SDS011;58696;52.134;5.500;2023-04-15T05:53:01;5.20;;;4.60;;
71042;SDS011;58696;52.134;5.500;2023-04-15T05:55:33;6.53;;;4.88;;
71042;SDS011;58696;52.134;5.500;2023-04-15T05:58:00;7.05;;;5.00;;
71042;SDS011;58696;52.134;5.500;2023-04-15T06:00:26;10.38;;;5.05;;
71042;SDS011;58696;52.134;5.500;2023-04-15T06:02:52;9.50;;;4.95;;
71042;SDS011;58696;52.134;5.500;2023-04-15T06:05:22;5.28;;;4.78;;
71042;SDS011;58696;52.134;5.500;2023-04-15T06:07:50;6.88;;;5.05;;
71042;SDS011;58696;52.134;5.500;2023-04-15T06:10:18;5.78;;;4.65;;
71042;SDS011;58696;52.134;5.500;2023-04-15T06:12:44;5.82;;;4.80;;
71042;SDS011;58696;52.134;5.500;2023-04-15T06:15:15;6.70;;;4.82;;
71042;SDS011;58696;52.134;5.500;2023-04-15T06:17:42;7.05;;;4.85;;
71042;SDS011;58696;52.134;5.500;2023-04-15T06:20:11;8.10;;;5.07;;
71042;SDS011;58696;52.134;5.500;2023-04-15T06:22:40;6.43;;;4.72;;
71042;SDS011;58696;52.134;5.500;2023-04-15T06:25:06;6.45;;;5.05;;
71042;SDS011;58696;52.134;5.500;2023-04-15T06:27:34;7.43;;;5.25;;
71042;SDS011;58696;52.134;5.500;2023-04-15T06:30:03;6.65;;;4.72;;
71042;SDS011;58696;52.134;5.500;2023-04-15T06:32:30;6.93;;;5.40;;
71042;SDS011;58696;52.134;5.500;2023-04-15T06:35:03;8.32;;;5.88;;
71042;SDS011;58696;52.134;5.500;2023-04-15T06:37:32;9.05;;;5.88;;
71042;SDS011;58696;52.134;5.500;2023-04-15T06:40:01;15.48;;;5.40;;
71042;SDS011;58696;52.134;5.500;2023-04-15T06:42:32;7.70;;;5.55;;
71042;SDS011;58696;52.134;5.500;2023-04-15T06:45:02;9.52;;;6.03;;
71042;SDS011;58696;52.134;5.500;2023-04-15T06:47:29;9.10;;;5.77;;
71042;SDS011;58696;52.134;5.500;2023-04-15T06:49:56;9.50;;;5.68;;
71042;SDS011;58696;52.134;5.500;2023-04-15T06:52:22;10.07;;;5.75;;
71042;SDS011;58696;52.134;5.500;2023-04-15T06:54:51;8.43;;;5.55;;
71042;SDS011;58696;52.134;5.500;2023-04-15T06:57:20;7.18;;;5.43;;
71042;SDS011;58696;52.134;5.500;2023-04-15T06:59:49;7.88;;;5.85;;
71042;SDS011;58696;52.134;5.500;2023-04-15T07:02:19;7.70;;;5.55;;
71042;SDS011;58696;52.134;5.500;2023-04-15T07:04:49;6.50;;;5.75;;
71042;SDS011;58696;52.134;5.500;2023-04-15T07:07:15;6.00;;;5.32;;
71042;SDS011;58696;52.134;5.500;2023-04-15T07:09:43;5.25;;;4.75;;
71042;SDS011;58696;52.134;5.500;2023-04-15T07:12:10;7.63;;;5.25;;
71042;SDS011;58696;52.134;5.500;2023-04-15T07:14:36;5.60;;;5.05;;
71042;SDS011;58696;52.134;5.500;2023-04-15T07:17:03;7.07;;;5.43;;
71042;SDS011;58696;52.134;5.500;2023-04-15T07:19:33;5.85;;;5.25;;
71042;SDS011;58696;52.134;5.500;2023-04-15T07:22:01;7.70;;;5.53;;
71042;SDS011;58696;52.134;5.500;2023-04-15T07:24:29;6.90;;;5.17;;
71042;SDS011;58696;52.134;5.500;2023-04-15T07:27:00;6.35;;;5.38;;
71042;SDS011;58696;52.134;5.500;2023-04-15T07:29:29;5.18;;;4.63;;
71042;SDS011;58696;52.134;5.500;2023-04-15T07:32:00;6.80;;;5.40;;
71042;SDS011;58696;52.134;5.500;2023-04-15T07:34:27;5.80;;;5.18;;
71042;SDS011;58696;52.134;5.500;2023-04-15T07:36:55;5.18;;;4.68;;
71042;SDS011;58696;52.134;5.500;2023-04-15T07:39:24;8.23;;;4.68;;
71042;SDS011;58696;52.134;5.500;2023-04-15T07:41:53;5.07;;;4.57;;
71042;SDS011;58696;52.134;5.500;2023-04-15T07:44:20;5.68;;;4.45;;
71042;SDS011;58696;52.134;5.500;2023-04-15T07:46:49;9.63;;;4.88;;
71042;SDS011;58696;52.134;5.500;2023-04-15T07:49:15;4.90;;;4.40;;
71042;SDS011;58696;52.134;5.500;2023-04-15T07:51:44;6.95;;;4.93;;
71042;SDS011;58696;52.134;5.500;2023-04-15T07:54:11;4.68;;;4.28;;
71042;SDS011;58696;52.134;5.500;2023-04-15T07:56:37;4.90;;;4.30;;
71042;SDS011;58696;52.134;5.500;2023-04-15T07:59:11;5.38;;;4.85;;
71042;SDS011;58696;52.134;5.500;2023-04-15T08:01:40;4.78;;;4.25;;
71042;SDS011;58696;52.134;5.500;2023-04-15T08:04:07;4.40;;;3.85;;
71042;SDS011;58696;52.134;5.500;2023-04-15T08:06:34;4.00;;;3.55;;
71042;SDS011;58696;52.134;5.500;2023-04-15T08:09:05;5.18;;;3.88;;
71042;SDS011;58696;52.134;5.500;2023-04-15T08:11:34;9.85;;;5.07;;
71042;SDS011;58696;52.134;5.500;2023-04-15T08:14:05;3.75;;;3.45;;
71042;SDS011;58696;52.134;5.500;2023-04-15T08:16:32;3.90;;;3.40;;
71042;SDS011;58696;52.134;5.500;2023-04-15T08:19:01;3.88;;;3.55;;
71042;SDS011;58696;52.134;5.500;2023-04-15T08:23:58;4.70;;;3.30;;
71042;SDS011;58696;52.134;5.500;2023-04-15T08:26:27;4.28;;;2.72;;
71042;SDS011;58696;52.134;5.500;2023-04-15T08:28:54;9.60;;;3.20;;
71042;SDS011;58696;52.134;5.500;2023-04-15T08:31:25;5.78;;;2.80;;
71042;SDS011;58696;52.134;5.500;2023-04-15T08:33:53;2.67;;;2.45;;
71042;SDS011;58696;52.134;5.500;2023-04-15T08:36:22;4.03;;;2.80;;
71042;SDS011;58696;52.134;5.500;2023-04-15T08:38:49;6.07;;;4.50;;
71042;SDS011;58696;52.134;5.500;2023-04-15T08:41:22;4.03;;;2.90;;
71042;SDS011;58696;52.134;5.500;2023-04-15T08:43:53;3.63;;;2.67;;
71042;SDS011;58696;52.134;5.500;2023-04-15T08:46:24;12.68;;;4.22;;
71042;SDS011;58696;52.134;5.500;2023-04-15T08:48:57;2.40;;;2.20;;
71042;SDS011;58696;52.134;5.500;2023-04-15T08:51:24;6.13;;;2.60;;
71042;SDS011;58696;52.134;5.500;2023-04-15T08:53:54;3.83;;;2.33;;
71042;SDS011;58696;52.134;5.500;2023-04-15T08:56:23;3.15;;;2.40;;
71042;SDS011;58696;52.134;5.500;2023-04-15T08:58:52;2.88;;;2.50;;
71042;SDS011;58696;52.134;5.500;2023-04-15T09:01:18;3.67;;;2.70;;
71042;SDS011;58696;52.134;5.500;2023-04-15T09:03:48;3.20;;;2.45;;
71042;SDS011;58696;52.134;5.500;2023-04-15T09:06:17;4.22;;;3.08;;
71042;SDS011;58696;52.134;5.500;2023-04-15T09:08:48;4.18;;;3.40;;
71042;SDS011;58696;52.134;5.500;2023-04-15T09:11:17;4.25;;;3.40;;
71042;SDS011;58696;52.134;5.500;2023-04-15T09:13:45;5.68;;;3.58;;
71042;SDS011;58696;52.134;5.500;2023-04-15T09:16:16;7.05;;;4.03;;
71042;SDS011;58696;52.134;5.500;2023-04-15T09:18:44;5.25;;;3.95;;
71042;SDS011;58696;52.134;5.500;2023-04-15T09:21:11;5.07;;;4.20;;
71042;SDS011;58696;52.134;5.500;2023-04-15T09:26:33;4.10;;;3.42;;
71042;SDS011;58696;52.134;5.500;2023-04-15T09:29:10;4.75;;;3.63;;
71042;SDS011;58696;52.134;5.500;2023-04-15T09:31:40;5.05;;;3.53;;
71042;SDS011;58696;52.134;5.500;2023-04-15T09:34:09;3.80;;;3.40;;
71042;SDS011;58696;52.134;5.500;2023-04-15T09:36:56;5.72;;;3.08;;
71042;SDS011;58696;52.134;5.500;2023-04-15T09:39:25;7.85;;;3.22;;
71042;SDS011;58696;52.134;5.500;2023-04-15T09:42:05;5.07;;;3.22;;
71042;SDS011;58696;52.134;5.500;2023-04-15T09:44:34;4.93;;;2.40;;
71042;SDS011;58696;52.134;5.500;2023-04-15T09:47:01;2.20;;;2.00;;
71042;SDS011;58696;52.134;5.500;2023-04-15T09:49:28;2.20;;;2.00;;
71042;SDS011;58696;52.134;5.500;2023-04-15T09:52:01;2.35;;;1.95;;
71042;SDS011;58696;52.134;5.500;2023-04-15T09:54:32;3.70;;;2.17;;
71042;SDS011;58696;52.134;5.500;2023-04-15T09:57:08;2.70;;;2.13;;
71042;SDS011;58696;52.134;5.500;2023-04-15T09:59:40;4.97;;;2.60;;
71042;SDS011;58696;52.134;5.500;2023-04-15T10:02:07;2.53;;;2.33;;
71042;SDS011;58696;52.134;5.500;2023-04-15T10:04:34;4.15;;;2.60;;
71042;SDS011;58696;52.134;5.500;2023-04-15T10:07:04;2.55;;;1.98;;
71042;SDS011;58696;52.134;5.500;2023-04-15T10:09:35;3.08;;;2.30;;
71042;SDS011;58696;52.134;5.500;2023-04-15T10:12:03;2.65;;;2.13;;
71042;SDS011;58696;52.134;5.500;2023-04-15T10:14:35;3.22;;;2.00;;
71042;SDS011;58696;52.134;5.500;2023-04-15T10:17:15;2.92;;;2.63;;
71042;SDS011;58696;52.134;5.500;2023-04-15T10:19:45;3.65;;;2.17;;
71042;SDS011;58696;52.134;5.500;2023-04-15T10:22:13;3.58;;;2.30;;
71042;SDS011;58696;52.134;5.500;2023-04-15T10:24:40;4.35;;;2.42;;
71042;SDS011;58696;52.134;5.500;2023-04-15T10:27:07;4.45;;;2.38;;
71042;SDS011;58696;52.134;5.500;2023-04-15T10:29:34;3.22;;;2.28;;
71042;SDS011;58696;52.134;5.500;2023-04-15T10:32:04;2.88;;;2.58;;
71042;SDS011;58696;52.134;5.500;2023-04-15T10:34:33;5.72;;;2.55;;
71042;SDS011;58696;52.134;5.500;2023-04-15T10:37:02;4.28;;;2.60;;
71042;SDS011;58696;52.134;5.500;2023-04-15T10:42:06;3.55;;;2.97;;
71042;SDS011;58696;52.134;5.500;2023-04-15T10:44:34;5.88;;;3.15;;
71042;SDS011;58696;52.134;5.500;2023-04-15T10:47:11;3.00;;;2.70;;
71042;SDS011;58696;52.134;5.500;2023-04-15T10:49:46;3.57;;;2.63;;
71042;SDS011;58696;52.134;5.500;2023-04-15T10:52:17;2.65;;;2.45;;
71042;SDS011;58696;52.134;5.500;2023-04-15T10:55:00;3.33;;;2.70;;
71042;SDS011;58696;52.134;5.500;2023-04-15T10:57:34;3.50;;;2.30;;
71042;SDS011;58696;52.134;5.500;2023-04-15T11:00:10;2.72;;;2.28;;
71042;SDS011;58696;52.134;5.500;2023-04-15T11:05:17;2.40;;;2.20;;
71042;SDS011;58696;52.134;5.500;2023-04-15T11:12:46;2.20;;;2.00;;
71042;SDS011;58696;52.134;5.500;2023-04-15T11:15:32;2.80;;;2.10;;
71042;SDS011;58696;52.134;5.500;2023-04-15T11:20:42;3.10;;;2.22;;
71042;SDS011;58696;52.134;5.500;2023-04-15T11:23:11;2.60;;;2.28;;
71042;SDS011;58696;52.134;5.500;2023-04-15T11:25:40;3.35;;;2.00;;
71042;SDS011;58696;52.134;5.500;2023-04-15T11:28:10;3.22;;;2.00;;
71042;SDS011;58696;52.134;5.500;2023-04-15T11:30:38;2.72;;;1.95;;
71042;SDS011;58696;52.134;5.500;2023-04-15T11:33:12;2.10;;;1.90;;
71042;SDS011;58696;52.134;5.500;2023-04-15T11:35:41;3.28;;;1.85;;
71042;SDS011;58696;52.134;5.500;2023-04-15T11:38:11;2.95;;;2.20;;
71042;SDS011;58696;52.134;5.500;2023-04-15T11:40:45;2.83;;;1.80;;
71042;SDS011;58696;52.134;5.500;2023-04-15T11:48:21;2.55;;;1.80;;
71042;SDS011;58696;52.134;5.500;2023-04-15T11:50:55;8.30;;;1.88;;
71042;SDS011;58696;52.134;5.500;2023-04-15T11:56:08;4.00;;;2.00;;
71042;SDS011;58696;52.134;5.500;2023-04-15T11:58:36;3.13;;;2.10;;
71042;SDS011;58696;52.134;5.500;2023-04-15T12:01:07;1.98;;;1.80;;
71042;SDS011;58696;52.134;5.500;2023-04-15T12:03:41;2.83;;;2.08;;
71042;SDS011;58696;52.134;5.500;2023-04-15T12:06:10;2.92;;;1.70;;
71042;SDS011;58696;52.134;5.500;2023-04-15T12:11:16;3.53;;;1.45;;
71042;SDS011;58696;52.134;5.500;2023-04-15T12:13:47;5.35;;;1.60;;
71042;SDS011;58696;52.134;5.500;2023-04-15T12:16:16;6.35;;;1.45;;
71042;SDS011;58696;52.134;5.500;2023-04-15T12:18:46;2.80;;;1.70;;
71042;SDS011;58696;52.134;5.500;2023-04-15T12:21:20;2.85;;;1.60;;
71042;SDS011;58696;52.134;5.500;2023-04-15T12:23:48;3.65;;;2.20;;
71042;SDS011;58696;52.134;5.500;2023-04-15T12:26:18;3.75;;;1.63;;
71042;SDS011;58696;52.134;5.500;2023-04-15T12:28:55;2.75;;;1.67;;
71042;SDS011;58696;52.134;5.500;2023-04-15T12:31:25;3.25;;;1.40;;
71042;SDS011;58696;52.134;5.500;2023-04-15T12:33:55;3.30;;;1.65;;
71042;SDS011;58696;52.134;5.500;2023-04-15T12:36:28;2.97;;;1.65;;
71042;SDS011;58696;52.134;5.500;2023-04-15T12:39:04;1.80;;;1.35;;
71042;SDS011;58696;52.134;5.500;2023-04-15T12:41:31;2.15;;;1.40;;
71042;SDS011;58696;52.134;5.500;2023-04-15T12:44:01;3.97;;;1.35;;
71042;SDS011;58696;52.134;5.500;2023-04-15T12:46:28;2.38;;;1.20;;
71042;SDS011;58696;52.134;5.500;2023-04-15T12:48:55;2.47;;;1.33;;
71042;SDS011;58696;52.134;5.500;2023-04-15T12:51:22;3.45;;;1.42;;
71042;SDS011;58696;52.134;5.500;2023-04-15T12:53:53;3.92;;;1.23;;
71042;SDS011;58696;52.134;5.500;2023-04-15T12:56:20;1.98;;;1.27;;
71042;SDS011;58696;52.134;5.500;2023-04-15T12:58:49;2.33;;;1.30;;
71042;SDS011;58696;52.134;5.500;2023-04-15T13:01:20;3.80;;;1.13;;
71042;SDS011;58696;52.134;5.500;2023-04-15T13:03:49;2.08;;;1.23;;
71042;SDS011;58696;52.134;5.500;2023-04-15T13:06:18;4.38;;;1.90;;
71042;SDS011;58696;52.134;5.500;2023-04-15T13:08:44;1.58;;;1.33;;
71042;SDS011;58696;52.134;5.500;2023-04-15T13:11:24;6.30;;;1.60;;
71042;SDS011;58696;52.134;5.500;2023-04-15T13:13:53;1.13;;;1.00;;
71042;SDS011;58696;52.134;5.500;2023-04-15T13:16:20;1.90;;;1.00;;
71042;SDS011;58696;52.134;5.500;2023-04-15T13:18:47;2.50;;;1.30;;
71042;SDS011;58696;52.134;5.500;2023-04-15T13:21:16;0.98;;;0.80;;
71042;SDS011;58696;52.134;5.500;2023-04-15T13:23:46;2.90;;;1.20;;
71042;SDS011;58696;52.134;5.500;2023-04-15T13:26:16;1.33;;;1.10;;
71042;SDS011;58696;52.134;5.500;2023-04-15T13:28:44;1.85;;;1.30;;
71042;SDS011;58696;52.134;5.500;2023-04-15T13:31:11;1.88;;;1.38;;
71042;SDS011;58696;52.134;5.500;2023-04-15T13:33:40;5.45;;;0.90;;
71042;SDS011;58696;52.134;5.500;2023-04-15T13:36:06;1.13;;;0.88;;
71042;SDS011;58696;52.134;5.500;2023-04-15T13:38:35;1.45;;;0.80;;
71042;SDS011;58696;52.134;5.500;2023-04-15T13:41:02;1.85;;;1.15;;
71042;SDS011;58696;52.134;5.500;2023-04-15T13:43:29;1.38;;;0.95;;
71042;SDS011;58696;52.134;5.500;2023-04-15T13:45:59;1.60;;;1.27;;
71042;SDS011;58696;52.134;5.500;2023-04-15T13:48:27;3.37;;;1.07;;
71042;SDS011;58696;52.134;5.500;2023-04-15T13:50:56;1.23;;;0.98;;
71042;SDS011;58696;52.134;5.500;2023-04-15T13:53:22;1.40;;;1.20;;
71042;SDS011;58696;52.134;5.500;2023-04-15T13:56:03;1.27;;;1.13;;
71042;SDS011;58696;52.134;5.500;2023-04-15T13:58:33;3.70;;;0.93;;
71042;SDS011;58696;52.134;5.500;2023-04-15T14:01:04;0.90;;;0.90;;
71042;SDS011;58696;52.134;5.500;2023-04-15T14:03:36;3.63;;;1.00;;
71042;SDS011;58696;52.134;5.500;2023-04-15T14:06:03;3.42;;;1.00;;
71042;SDS011;58696;52.134;5.500;2023-04-15T14:08:31;4.53;;;1.25;;
71042;SDS011;58696;52.134;5.500;2023-04-15T14:11:00;2.65;;;1.08;;
71042;SDS011;58696;52.134;5.500;2023-04-15T14:13:26;5.82;;;1.23;;
71042;SDS011;58696;52.134;5.500;2023-04-15T14:15:53;2.63;;;1.40;;
71042;SDS011;58696;52.134;5.500;2023-04-15T14:18:22;3.40;;;1.50;;
71042;SDS011;58696;52.134;5.500;2023-04-15T14:20:48;2.78;;;1.42;;
71042;SDS011;58696;52.134;5.500;2023-04-15T14:23:15;5.03;;;1.17;;
71042;SDS011;58696;52.134;5.500;2023-04-15T14:25:41;5.32;;;1.20;;
71042;SDS011;58696;52.134;5.500;2023-04-15T14:28:10;3.47;;;1.58;;
71042;SDS011;58696;52.134;5.500;2023-04-15T14:30:39;2.47;;;1.30;;
71042;SDS011;58696;52.134;5.500;2023-04-15T14:33:08;3.97;;;1.25;;
71042;SDS011;58696;52.134;5.500;2023-04-15T14:35:40;6.55;;;1.70;;
71042;SDS011;58696;52.134;5.500;2023-04-15T14:38:11;2.75;;;1.40;;
71042;SDS011;58696;52.134;5.500;2023-04-15T14:40:38;2.75;;;1.27;;
71042;SDS011;58696;52.134;5.500;2023-04-15T14:43:08;8.02;;;2.03;;
71042;SDS011;58696;52.134;5.500;2023-04-15T14:45:37;4.60;;;1.58;;
71042;SDS011;58696;52.134;5.500;2023-04-15T14:48:08;4.63;;;2.28;;
71042;SDS011;58696;52.134;5.500;2023-04-15T14:50:35;5.88;;;1.80;;
71042;SDS011;58696;52.134;5.500;2023-04-15T14:53:04;5.95;;;1.90;;
71042;SDS011;58696;52.134;5.500;2023-04-15T14:55:31;9.05;;;2.20;;
71042;SDS011;58696;52.134;5.500;2023-04-15T14:57:57;6.07;;;1.50;;
71042;SDS011;58696;52.134;5.500;2023-04-15T15:00:24;4.47;;;1.50;;
71042;SDS011;58696;52.134;5.500;2023-04-15T15:02:50;4.00;;;1.33;;
71042;SDS011;58696;52.134;5.500;2023-04-15T15:05:19;4.15;;;1.50;;
71042;SDS011;58696;52.134;5.500;2023-04-15T15:07:46;3.17;;;1.30;;
71042;SDS011;58696;52.134;5.500;2023-04-15T15:10:13;7.07;;;1.35;;
71042;SDS011;58696;52.134;5.500;2023-04-15T15:12:39;4.38;;;1.33;;
71042;SDS011;58696;52.134;5.500;2023-04-15T15:15:06;9.43;;;1.48;;
71042;SDS011;58696;52.134;5.500;2023-04-15T15:17:53;3.63;;;1.10;;
71042;SDS011;58696;52.134;5.500;2023-04-15T15:20:20;5.90;;;0.98;;
71042;SDS011;58696;52.134;5.500;2023-04-15T15:22:46;2.97;;;0.95;;
71042;SDS011;58696;52.134;5.500;2023-04-15T15:25:15;5.15;;;1.40;;
71042;SDS011;58696;52.134;5.500;2023-04-15T15:27:49;6.32;;;1.33;;